createdAt,value
2022-08-27T00:02:09.191Z,43.02
2022-08-27T00:04:38.241Z,43.22
2022-08-27T00:07:06.921Z,43.35
2022-08-27T00:09:35.509Z,43.57
2022-08-27T00:12:06.912Z,43.53
2022-08-27T00:14:36.279Z,43.60
2022-08-27T00:17:06.413Z,44.05
2022-08-27T00:19:34.523Z,43.80
2022-08-27T00:22:02.031Z,44.21
2022-08-27T00:24:29.513Z,44.35
2022-08-27T00:26:57.258Z,44.43
2022-08-27T00:29:26.575Z,44.51
2022-08-27T00:31:57.540Z,44.47
2022-08-27T00:34:27.855Z,44.68
2022-08-27T00:36:55.416Z,44.77
2022-08-27T00:39:22.948Z,44.66
2022-08-27T00:41:50.439Z,45.09
2022-08-27T00:44:18.040Z,45.42
2022-08-27T00:47:02.617Z,45.80
2022-08-27T00:49:38.887Z,46.28
2022-08-27T00:52:15.103Z,46.30
2022-08-27T00:54:42.932Z,46.17
2022-08-27T00:57:10.665Z,46.61
2022-08-27T00:59:40.036Z,46.67
2022-08-27T01:02:19.818Z,46.41
2022-08-27T01:05:04.908Z,46.98
2022-08-27T01:07:36.338Z,46.90
2022-08-27T01:10:07.677Z,47.31
2022-08-27T01:12:36.246Z,47.15
2022-08-27T01:15:11.019Z,47.33
2022-08-27T01:17:43.083Z,47.09
2022-08-27T01:20:17.897Z,47.78
2022-08-27T01:23:15.132Z,48.22
2022-08-27T01:25:44.261Z,47.72
2022-08-27T01:28:13.778Z,47.81
2022-08-27T01:30:42.428Z,47.80
2022-08-27T01:33:18.383Z,48.91
2022-08-27T01:35:48.447Z,48.52
2022-08-27T01:38:30.297Z,48.55
2022-08-27T01:41:01.164Z,48.66
2022-08-27T01:43:32.207Z,48.92
2022-08-27T01:46:00.403Z,49.08
2022-08-27T01:48:27.907Z,49.29
2022-08-27T01:50:56.184Z,49.36
2022-08-27T01:53:26.575Z,49.49
2022-08-27T01:55:55.640Z,49.79
2022-08-27T01:58:28.437Z,50.08
2022-08-27T02:01:00.807Z,49.91
2022-08-27T02:03:28.611Z,50.16
2022-08-27T02:05:56.257Z,50.31
2022-08-27T02:08:26.239Z,50.30
2022-08-27T02:10:53.787Z,50.45
2022-08-27T02:13:21.466Z,50.47
2022-08-27T02:15:49.297Z,50.42
2022-08-27T02:18:17.578Z,50.43
2022-08-27T02:20:46.808Z,50.65
2022-08-27T02:23:16.290Z,50.70
2022-08-27T02:25:47.328Z,51.00
2022-08-27T02:28:15.040Z,51.07
2022-08-27T02:30:42.561Z,51.12
2022-08-27T02:33:10.067Z,51.21
2022-08-27T02:35:43.903Z,51.47
2022-08-27T02:38:13.392Z,51.62
2022-08-27T02:40:41.391Z,51.61
2022-08-27T02:43:09.760Z,51.88
2022-08-27T02:45:43.479Z,51.85
2022-08-27T02:48:11.792Z,51.88
2022-08-27T02:50:39.622Z,51.78
2022-08-27T02:53:07.446Z,51.69
2022-08-27T02:55:35.820Z,51.76
2022-08-27T02:58:05.136Z,52.01
2022-08-27T03:00:34.299Z,51.66
2022-08-27T03:03:02.922Z,51.60
2022-08-27T03:05:30.549Z,51.72
2022-08-27T03:07:59.520Z,51.75
2022-08-27T03:10:27.063Z,51.52
2022-08-27T03:12:54.636Z,51.57
2022-08-27T03:15:22.244Z,51.51
2022-08-27T03:18:08.860Z,51.50
2022-08-27T03:20:41.549Z,51.59
2022-08-27T03:23:09.655Z,51.10
2022-08-27T03:25:38.255Z,51.25
2022-08-27T03:28:06.479Z,51.05
2022-08-27T03:30:58.562Z,50.76
2022-08-27T03:33:30.930Z,50.63
2022-08-27T03:35:59.345Z,50.63
2022-08-27T03:38:27.613Z,50.37
2022-08-27T03:40:57.795Z,50.46
2022-08-27T03:43:25.411Z,50.06
2022-08-27T03:46:01.115Z,50.12
2022-08-27T03:48:32.404Z,49.84
2022-08-27T03:51:09.892Z,49.42
2022-08-27T03:53:47.365Z,49.29
2022-08-27T03:56:15.203Z,49.09
2022-08-27T03:58:51.129Z,48.43
2022-08-27T04:01:19.422Z,48.01
2022-08-27T04:03:46.949Z,47.80
2022-08-27T04:06:14.476Z,47.52
2022-08-27T04:08:42.042Z,47.65
2022-08-27T04:11:09.652Z,47.21
2022-08-27T04:13:37.159Z,47.03
2022-08-27T04:16:06.188Z,46.78
2022-08-27T04:18:33.988Z,46.60
2022-08-27T04:21:09.025Z,46.42
2022-08-27T04:23:36.578Z,46.22
2022-08-27T04:26:06.658Z,46.09
2022-08-27T04:28:38.434Z,45.59
2022-08-27T04:31:12.927Z,45.25
2022-08-27T04:33:50.928Z,44.78
2022-08-27T04:36:19.266Z,44.59
2022-08-27T04:38:47.338Z,44.00
2022-08-27T04:41:26.474Z,43.74
2022-08-27T04:43:59.138Z,42.79
2022-08-27T04:46:29.736Z,42.85
2022-08-27T04:48:59.494Z,42.61
2022-08-27T04:51:28.569Z,41.74
2022-08-27T04:54:00.952Z,41.40
2022-08-27T04:56:29.407Z,41.44
2022-08-27T04:58:56.999Z,40.96
2022-08-27T05:01:27.350Z,40.76
2022-08-27T05:03:56.041Z,40.59
2022-08-27T05:06:24.605Z,39.75
2022-08-27T05:08:52.970Z,39.82
2022-08-27T05:11:22.365Z,40.06
2022-08-27T05:13:50.195Z,39.38
2022-08-27T05:16:21.620Z,39.08
2022-08-27T05:18:50.978Z,39.24
2022-08-27T05:21:31.874Z,38.93
2022-08-27T05:24:01.319Z,38.38
2022-08-27T05:26:30.566Z,38.23
2022-08-27T05:29:02.460Z,37.77
2022-08-27T05:31:30.418Z,37.55
2022-08-27T05:34:00.975Z,36.92
2022-08-27T05:36:32.059Z,36.58
2022-08-27T05:39:01.548Z,36.35
2022-08-27T05:41:34.291Z,35.55
2022-08-27T05:44:30.190Z,35.18
2022-08-27T05:46:56.994Z,34.90
2022-08-27T05:49:24.620Z,34.38
2022-08-27T05:51:52.136Z,33.59
2022-08-27T05:54:20.050Z,33.81
2022-08-27T05:56:51.952Z,33.57
2022-08-27T05:59:39.064Z,33.12
2022-08-27T06:02:07.067Z,33.47
2022-08-27T06:04:35.095Z,32.44
2022-08-27T06:07:02.774Z,32.34
2022-08-27T06:09:30.716Z,31.99
2022-08-27T06:12:02.497Z,31.16
2022-08-27T06:14:30.388Z,30.37
2022-08-27T06:17:00.972Z,30.06
2022-08-27T06:19:28.846Z,30.59
2022-08-27T06:22:01.211Z,30.82
2022-08-27T06:24:39.963Z,31.03
2022-08-27T06:27:13.798Z,30.58
2022-08-27T06:29:41.494Z,30.06
2022-08-27T06:32:09.793Z,30.02
2022-08-27T06:34:38.652Z,30.04
2022-08-27T06:37:07.554Z,30.06
2022-08-27T06:39:36.330Z,29.48
2022-08-27T06:42:06.825Z,29.31
2022-08-27T06:44:34.439Z,29.07
2022-08-27T06:47:03.934Z,28.65
2022-08-27T06:49:33.728Z,28.60
2022-08-27T06:52:01.410Z,28.68
2022-08-27T06:54:28.990Z,28.26
2022-08-27T06:56:59.701Z,27.53
2022-08-27T06:59:27.893Z,27.42
2022-08-27T07:02:02.823Z,27.19
2022-08-27T07:04:32.769Z,26.76
2022-08-27T07:07:02.498Z,26.09
2022-08-27T07:09:32.205Z,25.94
2022-08-27T07:12:01.503Z,25.69
2022-08-27T07:14:34.265Z,25.16
2022-08-27T07:17:05.822Z,24.56
2022-08-27T07:19:41.166Z,24.46
2022-08-27T07:22:09.443Z,24.06
2022-08-27T07:24:38.234Z,23.80
2022-08-27T07:27:06.372Z,23.72
2022-08-27T07:29:34.119Z,22.89
2022-08-27T07:32:01.776Z,22.29
2022-08-27T07:34:29.441Z,22.12
2022-08-27T07:36:57.035Z,21.95
2022-08-27T07:39:24.575Z,22.04
2022-08-27T07:42:10.749Z,21.39
2022-08-27T07:44:38.251Z,21.11
2022-08-27T07:47:06.091Z,20.29
2022-08-27T07:49:35.556Z,20.09
2022-08-27T07:52:03.829Z,19.73
2022-08-27T07:54:31.422Z,19.24
2022-08-27T07:56:59.329Z,19.25
2022-08-27T07:59:27.751Z,18.76
2022-08-27T08:01:58.403Z,18.83
2022-08-27T08:04:26.848Z,18.89
2022-08-27T08:06:55.835Z,18.29
2022-08-27T08:09:25.052Z,18.32
2022-08-27T08:11:57.062Z,18.27
2022-08-27T08:14:24.928Z,17.92
2022-08-27T08:16:52.577Z,17.26
2022-08-27T08:19:29.987Z,17.20
2022-08-27T08:22:04.996Z,15.75
2022-08-27T08:24:36.579Z,14.84
2022-08-27T08:27:07.444Z,15.00
2022-08-27T08:29:36.022Z,14.46
2022-08-27T08:32:07.684Z,14.69
2022-08-27T08:34:36.865Z,14.10
2022-08-27T08:37:06.713Z,14.37
2022-08-27T08:39:36.199Z,13.61
2022-08-27T08:42:06.444Z,13.29
2022-08-27T08:44:48.648Z,13.59
2022-08-27T08:47:25.248Z,12.92
2022-08-27T08:50:05.420Z,13.03
2022-08-27T08:52:37.326Z,13.20
2022-08-27T08:55:42.419Z,13.18
2022-08-27T08:58:47.843Z,12.50
2022-08-27T09:01:20.827Z,11.36
2022-08-27T09:04:04.716Z,11.61
2022-08-27T09:06:52.373Z,11.39
2022-08-27T09:09:42.811Z,11.06
2022-08-27T09:12:16.501Z,10.48
2022-08-27T09:14:54.987Z,10.17
2022-08-27T09:17:23.526Z,10.45
2022-08-27T09:19:53.554Z,10.13
2022-08-27T09:22:32.816Z,10.09
2022-08-27T09:25:09.204Z,10.69
2022-08-27T09:27:41.735Z,10.55
2022-08-27T09:30:13.606Z,10.56
2022-08-27T09:32:41.318Z,10.77
2022-08-27T09:35:12.939Z,10.40
2022-08-27T09:37:48.192Z,10.18
2022-08-27T09:40:26.660Z,10.60
2022-08-27T09:42:57.473Z,10.66
2022-08-27T09:45:28.335Z,10.40
2022-08-27T09:48:04.895Z,9.96
2022-08-27T09:50:53.613Z,10.14
2022-08-27T09:53:25.466Z,9.71
2022-08-27T09:55:58.851Z,9.35
2022-08-27T09:58:32.067Z,9.11
2022-08-27T10:01:17.183Z,9.07
2022-08-27T10:03:45.077Z,9.25
2022-08-27T10:06:12.830Z,8.86
2022-08-27T10:08:52.613Z,9.08
2022-08-27T10:11:29.127Z,8.71
2022-08-27T10:14:13.142Z,8.78
2022-08-27T10:16:43.518Z,8.43
2022-08-27T10:19:32.739Z,8.94
2022-08-27T10:22:18.689Z,8.85
2022-08-27T10:25:03.048Z,9.33
2022-08-27T10:27:54.163Z,9.62
2022-08-27T10:30:54.105Z,9.63
2022-08-27T10:33:46.596Z,10.15
2022-08-27T10:37:07.308Z,10.28
2022-08-27T10:40:02.542Z,11.03
2022-08-27T10:42:57.632Z,11.58
2022-08-27T10:45:34.808Z,11.40
2022-08-27T10:48:14.283Z,11.85
2022-08-27T10:50:44.381Z,11.99
2022-08-27T10:53:38.765Z,11.11
2022-08-27T10:56:33.271Z,11.25
2022-08-27T10:59:25.525Z,10.81
2022-08-27T11:02:11.126Z,10.11
2022-08-27T11:04:49.615Z,10.23
2022-08-27T11:07:49.681Z,10.24
2022-08-27T11:10:28.535Z,11.10
2022-08-27T11:13:00.164Z,11.88
2022-08-27T11:15:36.973Z,12.75
2022-08-27T11:18:11.951Z,13.22
2022-08-27T11:20:53.957Z,13.43
2022-08-27T11:23:36.540Z,14.36
2022-08-27T11:26:06.823Z,14.84
2022-08-27T11:28:48.658Z,15.68
2022-08-27T11:31:22.882Z,16.00
2022-08-27T11:34:12.499Z,16.10
2022-08-27T11:37:03.262Z,16.00
2022-08-27T11:39:51.736Z,15.98
2022-08-27T11:42:52.333Z,15.98
2022-08-27T11:45:28.633Z,15.35
2022-08-27T11:47:59.882Z,14.77
2022-08-27T11:50:30.981Z,14.45
2022-08-27T11:53:02.281Z,14.52
2022-08-27T11:55:38.535Z,14.18
2022-08-27T11:58:10.838Z,14.36
2022-08-27T12:00:49.526Z,13.18
2022-08-27T12:03:19.815Z,13.11
2022-08-27T12:06:26.587Z,13.54
2022-08-27T12:09:16.600Z,14.40
2022-08-27T12:11:55.991Z,14.48
2022-08-27T12:14:35.002Z,14.22
2022-08-27T12:17:11.212Z,14.38
2022-08-27T12:20:03.415Z,14.13
2022-08-27T12:23:11.027Z,14.63
2022-08-27T12:25:38.614Z,14.49
2022-08-27T12:28:09.391Z,14.13
2022-08-27T12:30:49.509Z,14.64
2022-08-27T12:33:39.705Z,14.58
2022-08-27T12:36:27.979Z,14.47
2022-08-27T12:38:58.576Z,14.53
2022-08-27T12:41:44.572Z,14.47
2022-08-27T12:44:23.330Z,14.47
2022-08-27T12:46:55.003Z,14.41
2022-08-27T12:49:37.142Z,13.98
2022-08-27T12:52:32.515Z,14.61
2022-08-27T12:55:52.399Z,14.28
2022-08-27T12:58:31.710Z,14.52
2022-08-27T13:01:26.713Z,14.68
2022-08-27T13:03:56.115Z,15.32
2022-08-27T13:06:33.364Z,15.67
2022-08-27T13:09:04.443Z,16.20
2022-08-27T13:11:44.411Z,16.95
2022-08-27T13:14:22.380Z,16.98
2022-08-27T13:16:59.578Z,16.78
2022-08-27T13:19:29.678Z,16.88
2022-08-27T13:21:58.458Z,16.67
2022-08-27T13:24:49.815Z,16.68
2022-08-27T13:27:35.086Z,16.93
2022-08-27T13:30:11.948Z,17.30
2022-08-27T13:33:00.082Z,17.64
2022-08-27T13:35:28.246Z,17.47
2022-08-27T13:37:57.641Z,17.84
2022-08-27T13:40:30.744Z,18.06
2022-08-27T13:43:05.206Z,18.37
2022-08-27T13:45:40.760Z,18.31
2022-08-27T13:48:11.798Z,18.27
2022-08-27T13:50:49.958Z,18.67
2022-08-27T13:53:43.221Z,18.52
2022-08-27T13:56:11.371Z,18.99
2022-08-27T13:58:41.939Z,19.28
2022-08-27T14:01:15.497Z,19.07
2022-08-27T14:04:10.847Z,19.34
2022-08-27T14:06:47.623Z,19.19
2022-08-27T14:09:21.604Z,19.56
2022-08-27T14:11:49.695Z,19.19
2022-08-27T14:14:19.063Z,19.13
2022-08-27T14:16:58.935Z,19.70
2022-08-27T14:19:33.409Z,19.26
2022-08-27T14:22:04.531Z,19.52
2022-08-27T14:24:32.030Z,19.37
2022-08-27T14:27:08.902Z,19.66
2022-08-27T14:29:37.747Z,19.82
2022-08-27T14:32:07.734Z,19.75
2022-08-27T14:34:35.952Z,19.73
2022-08-27T14:37:04.722Z,20.28
2022-08-27T14:39:32.548Z,20.02
2022-08-27T14:42:01.053Z,20.52
2022-08-27T14:44:28.721Z,20.44
2022-08-27T14:46:57.466Z,20.59
2022-08-27T14:49:32.154Z,20.63
2022-08-27T14:52:00.113Z,20.90
2022-08-27T14:54:29.059Z,20.90
2022-08-27T14:57:03.043Z,20.37
2022-08-27T14:59:31.921Z,20.86
2022-08-27T15:02:02.118Z,21.02
2022-08-27T15:04:30.207Z,21.13
2022-08-27T15:06:58.036Z,21.34
2022-08-27T15:09:25.886Z,21.12
2022-08-27T15:11:54.123Z,21.52
2022-08-27T15:14:28.590Z,22.23
2022-08-27T15:16:56.363Z,22.06
2022-08-27T15:19:26.238Z,22.16
2022-08-27T15:21:57.271Z,22.39
2022-08-27T15:24:28.451Z,22.18
2022-08-27T15:27:00.068Z,22.46
2022-08-27T15:29:27.759Z,22.64
2022-08-27T15:31:58.061Z,22.55
2022-08-27T15:34:25.653Z,22.90
2022-08-27T15:36:53.321Z,22.56
2022-08-27T15:39:21.124Z,22.59
2022-08-27T15:42:05.938Z,22.58
2022-08-27T15:44:35.549Z,22.78
2022-08-27T15:47:06.403Z,22.85
2022-08-27T15:49:34.169Z,23.10
2022-08-27T15:52:02.201Z,23.27
2022-08-27T15:54:31.337Z,23.21
2022-08-27T15:57:00.153Z,23.02
2022-08-27T15:59:28.175Z,23.18
2022-08-27T16:01:56.087Z,23.74
2022-08-27T16:04:23.783Z,23.78
2022-08-27T16:06:51.310Z,23.89
2022-08-27T16:09:19.806Z,23.69
2022-08-27T16:11:47.416Z,23.90
2022-08-27T16:14:15.906Z,24.19
2022-08-27T16:16:46.287Z,24.56
2022-08-27T16:19:16.615Z,24.15
2022-08-27T16:21:44.441Z,24.43
2022-08-27T16:24:12.775Z,24.71
2022-08-27T16:26:40.372Z,24.31
2022-08-27T16:29:08.092Z,24.44
2022-08-27T16:31:37.269Z,24.88
2022-08-27T16:34:15.260Z,25.21
2022-08-27T16:36:43.213Z,24.98
2022-08-27T16:39:10.888Z,25.36
2022-08-27T16:41:38.541Z,25.61
2022-08-27T16:44:06.966Z,25.37
2022-08-27T16:46:34.707Z,25.74
2022-08-27T16:49:21.163Z,25.96
2022-08-27T16:51:48.827Z,25.96
2022-08-27T16:54:17.056Z,26.07
2022-08-27T16:56:46.297Z,26.10
2022-08-27T16:59:14.322Z,26.52
2022-08-27T17:01:43.279Z,26.48
2022-08-27T17:04:19.332Z,26.54
2022-08-27T17:06:51.783Z,26.89
2022-08-27T17:09:27.042Z,27.18
2022-08-27T17:11:58.592Z,27.45
2022-08-27T17:14:26.931Z,26.92
2022-08-27T17:16:54.572Z,27.44
2022-08-27T17:19:24.507Z,27.62
2022-08-27T17:21:54.961Z,27.79
2022-08-27T17:24:22.832Z,27.85
2022-08-27T17:26:50.367Z,27.86
2022-08-27T17:29:19.105Z,28.07
2022-08-27T17:31:46.667Z,28.06
2022-08-27T17:34:22.049Z,28.61
2022-08-27T17:36:51.960Z,28.45
2022-08-27T17:39:19.864Z,28.29
2022-08-27T17:41:50.668Z,28.54
2022-08-27T17:44:34.975Z,28.62
2022-08-27T17:47:05.922Z,28.88
2022-08-27T17:49:33.941Z,28.71
2022-08-27T17:52:09.815Z,29.09
2022-08-27T17:54:44.770Z,29.07
2022-08-27T17:57:40.237Z,29.26
2022-08-27T18:00:11.264Z,29.35
2022-08-27T18:02:45.182Z,29.47
2022-08-27T18:05:15.554Z,29.65
2022-08-27T18:07:44.110Z,29.61
2022-08-27T18:10:15.033Z,29.89
2022-08-27T18:12:43.440Z,29.89
2022-08-27T18:15:17.285Z,30.07
2022-08-27T18:17:44.987Z,30.00
2022-08-27T18:20:15.770Z,30.50
2022-08-27T18:22:48.248Z,30.47
2022-08-27T18:25:18.471Z,30.54
2022-08-27T18:27:50.031Z,30.80
2022-08-27T18:30:17.796Z,30.55
2022-08-27T18:32:45.507Z,30.73
2022-08-27T18:35:32.580Z,31.33
2022-08-27T18:38:06.669Z,31.18
2022-08-27T18:40:41.396Z,31.07
2022-08-27T18:43:11.846Z,31.01
2022-08-27T18:45:39.623Z,31.07
2022-08-27T18:48:17.700Z,31.61
2022-08-27T18:50:55.578Z,31.40
2022-08-27T18:53:23.851Z,31.06
2022-08-27T18:55:52.365Z,31.33
2022-08-27T18:58:23.264Z,31.33
2022-08-27T19:00:55.859Z,31.52
2022-08-27T19:03:36.841Z,31.61
2022-08-27T19:06:07.920Z,31.26
2022-08-27T19:08:38.407Z,31.48
2022-08-27T19:11:26.186Z,31.52
2022-08-27T19:13:53.885Z,31.70
2022-08-27T19:16:55.886Z,31.91
2022-08-27T19:19:25.870Z,31.89
2022-08-27T19:21:53.592Z,31.98
2022-08-27T19:24:22.117Z,31.76
2022-08-27T19:26:50.568Z,31.93
2022-08-27T19:29:19.895Z,31.92
2022-08-27T19:31:47.611Z,32.10
2022-08-27T19:34:15.399Z,32.07
2022-08-27T19:36:43.731Z,32.42
2022-08-27T19:39:13.256Z,32.49
2022-08-27T19:41:41.365Z,32.71
2022-08-27T19:44:09.092Z,32.60
2022-08-27T19:46:37.921Z,32.61
2022-08-27T19:49:05.695Z,32.79
2022-08-27T19:51:33.639Z,32.73
2022-08-27T19:54:01.604Z,33.02
2022-08-27T19:56:32.559Z,32.82
2022-08-27T19:59:13.441Z,33.06
2022-08-27T20:01:47.993Z,32.99
2022-08-27T20:04:15.542Z,33.01
2022-08-27T20:06:43.140Z,33.05
2022-08-27T20:09:16.279Z,33.21
2022-08-27T20:11:46.010Z,33.15
2022-08-27T20:14:13.662Z,33.30
2022-08-27T20:16:41.586Z,33.56
2022-08-27T20:19:10.026Z,33.69
2022-08-27T20:21:40.110Z,33.79
2022-08-27T20:24:07.654Z,33.44
2022-08-27T20:26:35.363Z,33.69
2022-08-27T20:29:03.099Z,34.04
2022-08-27T20:31:31.254Z,34.36
2022-08-27T20:33:58.936Z,35.00
2022-08-27T20:36:29.839Z,34.90
2022-08-27T20:38:57.750Z,34.89
2022-08-27T20:41:25.393Z,34.98
2022-08-27T20:43:56.152Z,35.31
2022-08-27T20:46:26.543Z,35.34
2022-08-27T20:48:56.565Z,35.44
2022-08-27T20:51:27.437Z,35.87
2022-08-27T20:53:55.286Z,35.61
2022-08-27T20:56:22.834Z,35.97
2022-08-27T20:59:09.241Z,35.95
2022-08-27T21:01:37.342Z,36.26
2022-08-27T21:04:04.996Z,36.29
2022-08-27T21:06:33.558Z,36.68
2022-08-27T21:09:01.260Z,36.61
2022-08-27T21:11:29.071Z,36.54
2022-08-27T21:13:56.903Z,36.72
2022-08-27T21:16:25.938Z,36.85
2022-08-27T21:18:54.076Z,36.82
2022-08-27T21:21:22.275Z,36.97
2022-08-27T21:23:49.782Z,36.90
2022-08-27T21:26:17.398Z,36.96
2022-08-27T21:28:44.867Z,36.98
2022-08-27T21:31:12.399Z,37.10
2022-08-27T21:33:40.222Z,37.19
2022-08-27T21:36:11.842Z,37.26
2022-08-27T21:38:40.281Z,37.60
2022-08-27T21:41:14.024Z,38.04
2022-08-27T21:43:41.719Z,37.83
2022-08-27T21:46:09.262Z,37.72
2022-08-27T21:48:38.042Z,37.95
2022-08-27T21:51:15.236Z,38.02
2022-08-27T21:53:52.185Z,37.84
2022-08-27T21:56:19.738Z,37.86
2022-08-27T21:58:47.515Z,37.97
2022-08-27T22:01:15.602Z,37.49
2022-08-27T22:03:47.009Z,37.75
2022-08-27T22:06:20.840Z,37.68
2022-08-27T22:08:48.823Z,37.48
2022-08-27T22:11:21.925Z,37.60
2022-08-27T22:13:52.717Z,37.50
2022-08-27T22:16:23.000Z,37.45
2022-08-27T22:18:54.490Z,37.35
2022-08-27T22:21:24.040Z,37.71
2022-08-27T22:23:53.131Z,37.59
2022-08-27T22:26:22.224Z,37.98
2022-08-27T22:28:50.011Z,37.58
2022-08-27T22:31:25.350Z,37.26
2022-08-27T22:33:53.597Z,37.50
2022-08-27T22:36:21.122Z,37.51
2022-08-27T22:38:48.671Z,37.86
2022-08-27T22:41:18.428Z,37.86
2022-08-27T22:43:54.364Z,38.05
2022-08-27T22:46:24.652Z,37.95
2022-08-27T22:48:52.320Z,37.97
2022-08-27T22:51:22.675Z,38.08
2022-08-27T22:53:50.278Z,38.12
2022-08-27T22:56:17.933Z,38.14
2022-08-27T22:58:45.997Z,38.31
2022-08-27T23:01:19.466Z,38.77
2022-08-27T23:03:47.864Z,38.44
2022-08-27T23:06:17.002Z,38.36
2022-08-27T23:08:44.603Z,38.79
2022-08-27T23:11:12.617Z,38.61
2022-08-27T23:13:41.197Z,38.76
2022-08-27T23:16:11.757Z,38.73
2022-08-27T23:18:40.762Z,38.84
2022-08-27T23:21:09.523Z,39.04
2022-08-27T23:23:37.692Z,38.79
2022-08-27T23:26:23.947Z,39.12
2022-08-27T23:28:51.650Z,38.86
2022-08-27T23:31:19.531Z,38.88
2022-08-27T23:33:50.609Z,38.69
2022-08-27T23:36:19.115Z,38.65
2022-08-27T23:38:47.139Z,38.80
2022-08-27T23:41:17.922Z,38.73
2022-08-27T23:43:45.650Z,38.82
2022-08-27T23:46:13.547Z,38.31
2022-08-27T23:48:41.125Z,38.43
2022-08-27T23:51:11.389Z,38.52
2022-08-27T23:53:39.213Z,38.65
2022-08-27T23:56:06.945Z,38.52
2022-08-27T23:58:34.654Z,38.63
